createdAt,value
2022-08-18T00:01:11.903Z,99.90
2022-08-18T00:03:55.595Z,99.90
2022-08-18T00:06:30.029Z,99.90
2022-08-18T00:09:00.054Z,99.90
2022-08-18T00:11:41.493Z,99.90
2022-08-18T00:14:21.207Z,99.90
2022-08-18T00:16:53.030Z,99.90
2022-08-18T00:19:47.129Z,99.90
2022-08-18T00:22:15.639Z,99.90
2022-08-18T00:24:47.651Z,99.90
2022-08-18T00:27:23.354Z,99.90
2022-08-18T00:29:53.958Z,99.90
2022-08-18T00:32:24.129Z,99.90
2022-08-18T00:34:53.087Z,99.90
2022-08-18T00:37:23.615Z,99.90
2022-08-18T00:39:53.689Z,99.90
2022-08-18T00:42:29.827Z,99.90
2022-08-18T00:45:02.311Z,99.90
2022-08-18T00:47:42.567Z,99.90
2022-08-18T00:50:15.775Z,99.90
2022-08-18T00:52:52.095Z,99.90
2022-08-18T00:55:23.195Z,99.90
2022-08-18T00:57:56.334Z,99.90
2022-08-18T01:00:24.870Z,99.90
2022-08-18T01:02:57.743Z,99.90
2022-08-18T01:05:30.466Z,99.90
2022-08-18T01:08:00.239Z,99.90
2022-08-18T01:10:28.551Z,99.90
2022-08-18T01:12:58.895Z,99.90
2022-08-18T01:15:30.474Z,99.90
2022-08-18T01:18:18.008Z,99.90
2022-08-18T01:21:22.822Z,99.90
2022-08-18T01:23:54.726Z,99.90
2022-08-18T01:26:24.395Z,99.90
2022-08-18T01:28:54.157Z,99.90
2022-08-18T01:31:38.364Z,99.90
2022-08-18T01:34:08.189Z,99.90
2022-08-18T01:36:38.646Z,99.90
2022-08-18T01:39:11.187Z,99.90
2022-08-18T01:41:40.622Z,99.90
2022-08-18T01:44:11.620Z,99.90
2022-08-18T01:46:41.833Z,99.90
2022-08-18T01:49:13.383Z,99.90
2022-08-18T01:51:42.791Z,99.90
2022-08-18T01:54:15.181Z,99.90
2022-08-18T01:56:44.820Z,99.90
2022-08-18T01:59:14.693Z,99.90
2022-08-18T02:01:50.492Z,99.90
2022-08-18T02:04:35.607Z,99.90
2022-08-18T02:07:08.883Z,99.90
2022-08-18T02:09:41.413Z,99.90
2022-08-18T02:12:10.410Z,99.90
2022-08-18T02:14:39.688Z,99.90
2022-08-18T02:17:11.133Z,99.90
2022-08-18T02:19:44.143Z,99.90
2022-08-18T02:22:16.273Z,99.90
2022-08-18T02:24:46.552Z,99.90
2022-08-18T02:27:16.404Z,99.90
2022-08-18T02:29:44.911Z,99.90
2022-08-18T02:32:13.291Z,99.90
2022-08-18T02:34:42.931Z,99.90
2022-08-18T02:37:15.290Z,99.90
2022-08-18T02:39:46.050Z,99.90
2022-08-18T02:42:17.150Z,99.90
2022-08-18T02:44:46.137Z,99.90
2022-08-18T02:47:14.781Z,99.90
2022-08-18T02:49:43.621Z,99.90
2022-08-18T02:52:11.984Z,99.90
2022-08-18T02:54:40.539Z,99.90
2022-08-18T02:57:12.311Z,99.90
2022-08-18T02:59:41.801Z,99.90
2022-08-18T03:02:16.342Z,99.90
2022-08-18T03:04:45.064Z,99.90
2022-08-18T03:07:14.937Z,99.90
2022-08-18T03:09:43.874Z,99.90
2022-08-18T03:12:13.927Z,99.90
2022-08-18T03:14:42.385Z,99.90
2022-08-18T03:17:10.929Z,99.90
2022-08-18T03:19:39.505Z,99.90
2022-08-18T03:22:27.789Z,99.90
2022-08-18T03:24:57.950Z,99.90
2022-08-18T03:27:28.382Z,99.90
2022-08-18T03:29:58.796Z,99.90
2022-08-18T03:32:27.622Z,99.90
2022-08-18T03:34:56.056Z,99.90
2022-08-18T03:37:24.704Z,99.90
2022-08-18T03:39:53.628Z,99.90
2022-08-18T03:42:22.185Z,99.90
2022-08-18T03:44:52.481Z,99.90
2022-08-18T03:47:21.241Z,99.90
2022-08-18T03:49:49.993Z,99.90
2022-08-18T03:52:18.488Z,99.90
2022-08-18T03:54:47.140Z,99.90
2022-08-18T03:57:15.793Z,99.90
2022-08-18T03:59:44.260Z,99.90
2022-08-18T04:02:16.304Z,99.90
2022-08-18T04:04:44.758Z,99.90
2022-08-18T04:07:17.680Z,99.90
2022-08-18T04:09:47.112Z,99.90
2022-08-18T04:12:17.742Z,99.90
2022-08-18T04:14:48.756Z,99.90
2022-08-18T04:17:23.534Z,99.90
2022-08-18T04:19:52.700Z,99.90
2022-08-18T04:22:21.204Z,99.90
2022-08-18T04:24:50.375Z,99.90
2022-08-18T04:27:19.295Z,99.90
2022-08-18T04:29:48.029Z,99.90
2022-08-18T04:32:16.584Z,99.90
2022-08-18T04:34:46.674Z,99.90
2022-08-18T04:37:15.537Z,99.90
2022-08-18T04:39:45.616Z,99.90
2022-08-18T04:42:14.543Z,99.90
2022-08-18T04:44:43.432Z,99.90
2022-08-18T04:47:13.324Z,99.90
2022-08-18T04:49:44.602Z,99.90
2022-08-18T04:52:40.645Z,99.90
2022-08-18T04:55:11.403Z,99.90
2022-08-18T04:57:42.667Z,99.90
2022-08-18T05:00:14.050Z,99.90
2022-08-18T05:02:42.820Z,99.90
2022-08-18T05:05:11.418Z,99.90
2022-08-18T05:07:46.133Z,99.90
2022-08-18T05:10:17.775Z,99.90
2022-08-18T05:12:48.857Z,99.90
2022-08-18T05:15:18.977Z,99.90
2022-08-18T05:17:50.541Z,99.90
2022-08-18T05:20:20.145Z,99.90
2022-08-18T05:22:51.059Z,99.90
2022-08-18T05:25:19.504Z,99.90
2022-08-18T05:27:47.898Z,99.90
2022-08-18T05:30:16.773Z,99.90
2022-08-18T05:32:50.124Z,99.90
2022-08-18T05:35:24.407Z,99.90
2022-08-18T05:38:15.707Z,99.90
2022-08-18T05:40:45.774Z,99.90
2022-08-18T05:43:16.232Z,99.90
2022-08-18T05:45:44.591Z,99.90
2022-08-18T05:48:12.859Z,99.90
2022-08-18T05:50:41.368Z,99.90
2022-08-18T05:53:15.136Z,99.90
2022-08-18T05:56:06.518Z,99.90
2022-08-18T05:58:41.028Z,99.90
2022-08-18T06:01:18.883Z,99.90
2022-08-18T06:03:51.376Z,99.90
2022-08-18T06:06:24.136Z,99.90
2022-08-18T06:08:59.097Z,99.90
2022-08-18T06:11:27.655Z,99.90
2022-08-18T06:14:00.033Z,99.90
2022-08-18T06:16:49.966Z,99.90
2022-08-18T06:19:33.756Z,99.90
2022-08-18T06:22:12.431Z,99.90
2022-08-18T06:24:52.482Z,99.90
2022-08-18T06:27:26.135Z,99.90
2022-08-18T06:30:12.606Z,99.90
2022-08-18T06:33:01.462Z,99.90
2022-08-18T06:35:36.592Z,99.90
2022-08-18T06:38:41.037Z,99.90
2022-08-18T06:41:43.254Z,99.90
2022-08-18T06:44:09.932Z,99.90
2022-08-18T06:46:43.445Z,99.90
2022-08-18T06:49:15.391Z,99.90
2022-08-18T06:51:46.143Z,99.90
2022-08-18T06:54:29.436Z,99.90
2022-08-18T06:57:00.092Z,99.90
2022-08-18T06:59:30.561Z,99.90
2022-08-18T07:02:19.687Z,99.90
2022-08-18T07:05:01.611Z,99.90
2022-08-18T07:07:39.602Z,99.90
2022-08-18T07:10:32.782Z,99.90
2022-08-18T07:13:20.262Z,99.90
2022-08-18T07:15:50.024Z,99.90
2022-08-18T07:18:25.460Z,99.90
2022-08-18T07:20:57.289Z,99.90
2022-08-18T07:23:30.289Z,99.60
2022-08-18T07:26:09.580Z,99.90
2022-08-18T07:28:41.906Z,98.60
2022-08-18T07:31:20.575Z,99.60
2022-08-18T07:33:55.948Z,99.90
2022-08-18T07:36:29.822Z,97.90
2022-08-18T07:39:03.724Z,99.20
2022-08-18T07:41:38.082Z,98.80
2022-08-18T07:44:18.782Z,94.70
2022-08-18T07:46:55.645Z,88.80
2022-08-18T07:49:26.083Z,91.10
2022-08-18T07:52:02.470Z,90.60
2022-08-18T07:54:51.077Z,90.50
2022-08-18T07:57:29.843Z,82.10
2022-08-18T08:00:10.469Z,84.20
2022-08-18T08:02:58.940Z,82.10
2022-08-18T08:05:41.057Z,83.40
2022-08-18T08:08:25.049Z,80.50
2022-08-18T08:11:06.178Z,76.40
2022-08-18T08:13:55.100Z,79.00
2022-08-18T08:16:37.587Z,73.50
2022-08-18T08:19:36.561Z,74.50
2022-08-18T08:22:17.861Z,73.00
2022-08-18T08:24:57.400Z,70.90
2022-08-18T08:27:37.611Z,74.30
2022-08-18T08:30:10.554Z,67.00
2022-08-18T08:32:51.979Z,66.30
2022-08-18T08:35:49.707Z,64.70
2022-08-18T08:38:40.354Z,64.30
2022-08-18T08:41:18.251Z,67.00
2022-08-18T08:43:52.345Z,61.80
2022-08-18T08:46:24.258Z,62.70
2022-08-18T08:49:07.491Z,63.10
2022-08-18T08:51:40.697Z,61.10
2022-08-18T08:54:16.234Z,64.30
2022-08-18T08:56:47.786Z,64.00
2022-08-18T08:59:17.961Z,63.20
2022-08-18T09:01:54.732Z,64.50
2022-08-18T09:04:37.718Z,62.30
2022-08-18T09:07:39.809Z,61.60
2022-08-18T09:10:39.630Z,62.30
2022-08-18T09:13:29.270Z,58.00
2022-08-18T09:16:23.884Z,61.10
2022-08-18T09:19:13.179Z,57.60
2022-08-18T09:21:49.730Z,57.50
2022-08-18T09:24:25.786Z,54.40
2022-08-18T09:27:14.888Z,55.50
2022-08-18T09:29:53.554Z,54.00
2022-08-18T09:33:18.658Z,54.00
2022-08-18T09:36:10.307Z,53.90
2022-08-18T09:39:08.703Z,55.40
2022-08-18T09:41:49.004Z,53.30
2022-08-18T09:44:58.691Z,53.10
2022-08-18T09:48:10.060Z,51.20
2022-08-18T09:51:17.713Z,52.20
2022-08-18T09:54:21.372Z,50.50
2022-08-18T09:57:20.723Z,52.80
2022-08-18T10:00:00.502Z,50.10
2022-08-18T10:03:12.942Z,50.50
2022-08-18T10:05:56.810Z,49.90
2022-08-18T10:09:14.568Z,49.40
2022-08-18T10:12:21.240Z,50.30
2022-08-18T10:15:33.814Z,47.40
2022-08-18T10:18:27.410Z,48.20
2022-08-18T10:21:09.185Z,47.40
2022-08-18T10:24:35.227Z,45.70
2022-08-18T10:27:40.128Z,46.30
2022-08-18T10:30:57.312Z,45.60
2022-08-18T10:33:58.633Z,46.00
2022-08-18T10:37:00.385Z,46.60
2022-08-18T10:39:50.065Z,45.20
2022-08-18T10:42:30.971Z,44.50
2022-08-18T10:45:09.452Z,43.60
2022-08-18T10:47:38.978Z,43.80
2022-08-18T10:50:21.502Z,43.00
2022-08-18T10:53:33.129Z,44.00
2022-08-18T10:55:55.141Z,44.20
2022-08-18T10:58:47.954Z,45.20
2022-08-18T11:01:36.271Z,46.60
2022-08-18T11:04:33.321Z,48.50
2022-08-18T11:07:08.556Z,47.60
2022-08-18T11:09:41.736Z,45.80
2022-08-18T11:12:13.079Z,47.00
2022-08-18T11:15:22.336Z,47.40
2022-08-18T11:18:05.864Z,49.10
2022-08-18T11:20:39.561Z,48.90
2022-08-18T11:23:17.005Z,48.80
2022-08-18T11:25:45.982Z,49.00
2022-08-18T11:28:19.254Z,47.40
2022-08-18T11:30:52.632Z,43.50
2022-08-18T11:33:24.453Z,42.50
2022-08-18T11:35:57.854Z,44.70
2022-08-18T11:38:29.676Z,45.10
2022-08-18T11:41:13.745Z,44.30
2022-08-18T11:43:47.501Z,43.60
2022-08-18T11:46:30.786Z,41.60
2022-08-18T11:49:01.653Z,41.00
2022-08-18T11:51:32.343Z,41.30
2022-08-18T11:54:03.169Z,40.90
2022-08-18T11:56:35.991Z,40.50
2022-08-18T11:59:08.635Z,42.00
2022-08-18T12:01:51.410Z,40.80
2022-08-18T12:04:40.687Z,42.00
2022-08-18T12:07:14.213Z,41.90
2022-08-18T12:10:18.409Z,38.90
2022-08-18T12:12:50.107Z,40.10
2022-08-18T12:15:43.871Z,40.30
2022-08-18T12:18:28.541Z,39.40
2022-08-18T12:20:59.276Z,39.20
2022-08-18T12:23:38.916Z,39.20
2022-08-18T12:26:38.853Z,39.50
2022-08-18T12:29:11.842Z,40.00
2022-08-18T12:31:42.422Z,40.80
2022-08-18T12:34:25.068Z,38.10
2022-08-18T12:36:58.544Z,41.30
2022-08-18T12:39:26.796Z,40.70
2022-08-18T12:41:55.104Z,39.40
2022-08-18T12:44:23.443Z,39.40
2022-08-18T12:46:57.274Z,39.30
2022-08-18T12:49:29.549Z,40.00
2022-08-18T12:51:58.449Z,39.00
2022-08-18T12:54:26.817Z,40.10
2022-08-18T12:56:57.613Z,38.90
2022-08-18T12:59:26.656Z,38.20
2022-08-18T13:02:09.677Z,39.00
2022-08-18T13:04:40.911Z,37.90
2022-08-18T13:07:09.165Z,39.80
2022-08-18T13:09:53.509Z,39.20
2022-08-18T13:12:24.140Z,37.50
2022-08-18T13:14:55.123Z,39.10
2022-08-18T13:17:29.789Z,37.20
2022-08-18T13:20:04.997Z,37.40
2022-08-18T13:22:33.624Z,38.50
2022-08-18T13:25:03.862Z,38.80
2022-08-18T13:27:35.377Z,39.40
2022-08-18T13:30:30.622Z,39.80
2022-08-18T13:32:58.769Z,39.20
2022-08-18T13:35:30.043Z,39.70
2022-08-18T13:38:14.101Z,41.20
2022-08-18T13:40:48.421Z,41.50
2022-08-18T13:43:18.614Z,39.90
2022-08-18T13:45:52.930Z,40.10
2022-08-18T13:48:21.943Z,39.70
2022-08-18T13:50:55.660Z,40.60
2022-08-18T13:53:27.162Z,39.20
2022-08-18T13:55:58.578Z,38.40
2022-08-18T13:58:27.662Z,40.20
2022-08-18T14:01:22.920Z,41.00
2022-08-18T14:03:48.376Z,40.60
2022-08-18T14:06:22.893Z,38.50
2022-08-18T14:08:53.287Z,39.90
2022-08-18T14:11:26.745Z,41.00
2022-08-18T14:13:56.633Z,41.20
2022-08-18T14:16:26.759Z,40.10
2022-08-18T14:19:13.110Z,40.40
2022-08-18T14:22:03.295Z,39.60
2022-08-18T14:24:50.152Z,39.60
2022-08-18T14:27:19.267Z,40.60
2022-08-18T14:29:49.733Z,39.80
2022-08-18T14:32:29.315Z,39.60
2022-08-18T14:35:00.871Z,40.70
2022-08-18T14:37:48.762Z,41.80
2022-08-18T14:40:20.282Z,42.90
2022-08-18T14:42:54.544Z,41.30
2022-08-18T14:45:31.491Z,42.20
2022-08-18T14:48:07.481Z,41.80
2022-08-18T14:50:40.107Z,43.10
2022-08-18T14:53:15.107Z,43.80
2022-08-18T14:55:44.418Z,45.40
2022-08-18T14:58:18.851Z,44.20
2022-08-18T15:00:53.313Z,44.10
2022-08-18T15:03:30.877Z,44.50
2022-08-18T15:06:00.932Z,44.20
2022-08-18T15:08:35.354Z,45.20
2022-08-18T15:11:11.313Z,44.80
2022-08-18T15:13:41.694Z,45.40
2022-08-18T15:16:13.507Z,43.90
2022-08-18T15:18:42.032Z,44.40
2022-08-18T15:21:35.047Z,45.10
2022-08-18T15:24:26.608Z,45.10
2022-08-18T15:26:57.571Z,46.10
2022-08-18T15:29:29.416Z,45.30
2022-08-18T15:32:02.317Z,44.60
2022-08-18T15:34:47.043Z,44.90
2022-08-18T15:37:22.212Z,44.00
2022-08-18T15:40:05.358Z,43.90
2022-08-18T15:42:33.716Z,44.10
2022-08-18T15:45:12.087Z,44.20
2022-08-18T15:47:42.525Z,45.00
2022-08-18T15:50:25.208Z,44.40
2022-08-18T15:52:55.691Z,45.90
2022-08-18T15:55:27.659Z,43.40
2022-08-18T15:57:58.219Z,43.80
2022-08-18T16:00:29.899Z,45.30
2022-08-18T16:03:01.431Z,45.90
2022-08-18T16:05:33.096Z,47.40
2022-08-18T16:08:01.520Z,46.80
2022-08-18T16:10:33.900Z,49.00
2022-08-18T16:13:04.616Z,49.90
2022-08-18T16:15:37.049Z,48.80
2022-08-18T16:18:07.156Z,49.00
2022-08-18T16:20:36.307Z,48.60
2022-08-18T16:23:05.462Z,49.20
2022-08-18T16:25:37.966Z,49.60
2022-08-18T16:28:07.043Z,49.30
2022-08-18T16:30:35.881Z,49.60
2022-08-18T16:33:06.741Z,49.00
2022-08-18T16:35:37.333Z,49.80
2022-08-18T16:38:08.706Z,49.90
2022-08-18T16:40:40.319Z,49.60
2022-08-18T16:43:08.997Z,49.40
2022-08-18T16:45:38.174Z,49.70
2022-08-18T16:48:08.295Z,50.70
2022-08-18T16:50:37.660Z,49.70
2022-08-18T16:53:06.399Z,50.60
2022-08-18T16:55:35.312Z,50.40
2022-08-18T16:58:23.484Z,50.60
2022-08-18T17:01:11.526Z,50.70
2022-08-18T17:04:03.360Z,51.00
2022-08-18T17:06:31.694Z,51.80
2022-08-18T17:09:09.190Z,51.60
2022-08-18T17:11:51.502Z,52.30
2022-08-18T17:14:22.998Z,52.40
2022-08-18T17:16:54.837Z,53.20
2022-08-18T17:19:24.546Z,54.60
2022-08-18T17:21:52.967Z,53.80
2022-08-18T17:24:31.363Z,54.30
2022-08-18T17:27:11.772Z,55.00
2022-08-18T17:30:01.773Z,59.10
2022-08-18T17:35:09.846Z,58.00
2022-08-18T17:37:41.238Z,60.00
2022-08-18T17:40:16.198Z,64.10
2022-08-18T17:42:44.655Z,64.80
2022-08-18T17:45:22.381Z,66.20
2022-08-18T17:47:57.947Z,67.50
2022-08-18T17:50:47.957Z,68.20
2022-08-18T17:53:17.713Z,68.30
2022-08-18T17:55:50.940Z,69.90
2022-08-18T17:58:24.522Z,71.00
2022-08-18T18:00:54.084Z,72.70
2022-08-18T18:03:22.662Z,72.60
2022-08-18T18:05:54.518Z,74.40
2022-08-18T18:08:22.985Z,75.40
2022-08-18T18:11:07.659Z,76.60
2022-08-18T18:13:35.912Z,79.40
2022-08-18T18:16:24.078Z,80.40
2022-08-18T18:19:01.263Z,81.30
2022-08-18T18:21:55.414Z,82.80
2022-08-18T18:24:23.827Z,83.60
2022-08-18T18:26:53.203Z,85.00
2022-08-18T18:29:29.158Z,86.10
2022-08-18T18:32:05.517Z,86.30
2022-08-18T18:34:39.654Z,86.50
2022-08-18T18:37:25.446Z,86.60
2022-08-18T18:39:59.251Z,87.00
2022-08-18T18:42:30.850Z,88.80
2022-08-18T18:45:01.187Z,90.10
2022-08-18T18:47:49.826Z,90.30
2022-08-18T18:50:27.091Z,90.90
2022-08-18T18:53:08.443Z,91.90
2022-08-18T18:55:44.928Z,92.60
2022-08-18T18:58:24.632Z,93.40
2022-08-18T19:01:00.321Z,94.00
2022-08-18T19:03:36.702Z,95.00
2022-08-18T19:06:15.235Z,95.10
2022-08-18T19:08:54.813Z,95.10
2022-08-18T19:11:33.222Z,95.30
2022-08-18T19:14:07.551Z,95.10
2022-08-18T19:16:41.005Z,95.40
2022-08-18T19:19:35.416Z,95.50
2022-08-18T19:22:15.936Z,95.90
2022-08-18T19:24:53.789Z,96.20
2022-08-18T19:27:31.477Z,97.50
2022-08-18T19:30:06.206Z,98.00
2022-08-18T19:32:40.831Z,98.20
2022-08-18T19:35:16.224Z,98.40
2022-08-18T19:38:10.347Z,98.80
2022-08-18T19:40:47.426Z,99.50
2022-08-18T19:43:27.405Z,99.90
2022-08-18T19:46:02.670Z,99.90
2022-08-18T19:48:41.689Z,99.90
2022-08-18T19:51:16.117Z,99.90
2022-08-18T19:54:05.293Z,99.90
2022-08-18T19:56:53.410Z,99.90
2022-08-18T19:59:35.983Z,99.90
2022-08-18T20:02:20.874Z,99.90
2022-08-18T20:05:04.594Z,99.90
2022-08-18T20:08:04.285Z,99.90
2022-08-18T20:11:03.970Z,99.90
2022-08-18T20:13:36.118Z,99.90
2022-08-18T20:16:43.642Z,99.90
2022-08-18T20:20:07.310Z,99.90
2022-08-18T20:22:43.149Z,99.90
2022-08-18T20:25:38.750Z,99.90
2022-08-18T20:28:33.244Z,99.90
2022-08-18T20:31:12.337Z,99.90
2022-08-18T20:33:46.896Z,99.90
2022-08-18T20:36:25.271Z,99.90
2022-08-18T20:38:55.305Z,99.90
2022-08-18T20:41:41.858Z,99.90
2022-08-18T20:44:40.698Z,99.90
2022-08-18T20:47:23.685Z,99.90
2022-08-18T20:50:04.294Z,99.90
2022-08-18T20:52:40.891Z,99.90
2022-08-18T20:55:21.402Z,99.90
2022-08-18T20:57:55.486Z,99.90
2022-08-18T21:00:27.257Z,99.90
2022-08-18T21:02:58.106Z,99.90
2022-08-18T21:05:29.104Z,99.90
2022-08-18T21:08:07.459Z,99.90
2022-08-18T21:10:36.085Z,99.90
2022-08-18T21:13:08.261Z,99.90
2022-08-18T21:15:38.609Z,99.90
2022-08-18T21:18:10.021Z,99.90
2022-08-18T21:20:38.301Z,99.90
2022-08-18T21:23:09.274Z,99.90
2022-08-18T21:25:42.047Z,99.90
2022-08-18T21:28:13.282Z,99.90
2022-08-18T21:30:54.711Z,99.90
2022-08-18T21:33:23.091Z,99.90
2022-08-18T21:35:51.422Z,99.90
2022-08-18T21:38:27.962Z,99.90
2022-08-18T21:40:59.968Z,99.90
2022-08-18T21:43:48.950Z,99.90
2022-08-18T21:46:26.028Z,99.90
2022-08-18T21:48:56.540Z,99.90
2022-08-18T21:51:29.566Z,99.90
2022-08-18T21:53:58.146Z,99.90
2022-08-18T21:56:29.419Z,99.90
2022-08-18T21:59:11.599Z,99.90
2022-08-18T22:01:49.897Z,99.90
2022-08-18T22:04:26.996Z,99.90
2022-08-18T22:06:58.249Z,99.90
2022-08-18T22:09:47.137Z,99.90
2022-08-18T22:12:41.891Z,99.90
2022-08-18T22:15:17.653Z,99.90
2022-08-18T22:17:54.920Z,99.90
2022-08-18T22:20:46.444Z,99.90
2022-08-18T22:23:44.842Z,99.90
2022-08-18T22:26:21.546Z,99.90
2022-08-18T22:29:03.806Z,99.90
2022-08-18T22:31:36.339Z,99.90
2022-08-18T22:34:08.390Z,99.90
2022-08-18T22:36:39.884Z,99.90
2022-08-18T22:39:11.881Z,99.90
2022-08-18T22:41:41.048Z,99.90
2022-08-18T22:44:10.436Z,99.90
2022-08-18T22:46:40.029Z,99.90
2022-08-18T22:49:08.291Z,99.90
2022-08-18T22:51:37.320Z,99.90
2022-08-18T22:54:08.431Z,99.90
2022-08-18T22:56:37.955Z,99.90
2022-08-18T22:59:15.848Z,99.90
2022-08-18T23:01:49.056Z,99.90
2022-08-18T23:04:19.477Z,99.90
2022-08-18T23:06:52.063Z,99.90
2022-08-18T23:09:22.493Z,99.90
2022-08-18T23:11:51.031Z,99.90
2022-08-18T23:14:19.289Z,99.90
2022-08-18T23:16:49.732Z,99.90
2022-08-18T23:19:20.186Z,99.90
2022-08-18T23:21:51.706Z,99.90
2022-08-18T23:24:21.186Z,99.90
2022-08-18T23:26:50.402Z,99.90
2022-08-18T23:29:19.827Z,99.90
2022-08-18T23:31:50.694Z,99.90
2022-08-18T23:34:23.062Z,99.90
2022-08-18T23:36:55.514Z,99.90
2022-08-18T23:39:24.760Z,99.90
2022-08-18T23:41:53.599Z,99.90
2022-08-18T23:44:22.501Z,99.90
2022-08-18T23:46:57.962Z,99.90
2022-08-18T23:49:27.992Z,99.90
2022-08-18T23:51:57.628Z,99.90
2022-08-18T23:54:28.061Z,99.90
2022-08-18T23:56:56.703Z,99.90
2022-08-18T23:59:26.027Z,99.90
